createdAt,value
2022-09-22T00:04:18.848Z,99293.77
2022-09-22T00:09:21.482Z,99288.90
2022-09-22T00:14:26.047Z,99284.62
2022-09-22T00:19:30.933Z,99288.25
2022-09-22T00:24:33.663Z,99291.52
2022-09-22T00:29:35.384Z,99294.22
2022-09-22T00:34:37.266Z,99290.36
2022-09-22T00:39:39.064Z,99288.30
2022-09-22T00:44:43.781Z,99284.85
2022-09-22T00:50:13.384Z,99288.41
2022-09-22T00:55:25.621Z,99287.45
2022-09-22T01:00:27.570Z,99289.40
2022-09-22T01:05:33.871Z,99288.63
2022-09-22T01:10:35.757Z,99285.61
2022-09-22T01:15:43.330Z,99279.80
2022-09-22T01:21:19.841Z,99278.20
2022-09-22T01:26:43.309Z,99276.10
2022-09-22T01:32:00.578Z,99270.15
2022-09-22T01:37:30.855Z,99262.62
2022-09-22T01:42:44.841Z,99262.27
2022-09-22T01:47:55.458Z,99265.96
2022-09-22T01:53:06.337Z,99260.98
2022-09-22T01:58:19.427Z,99264.49
2022-09-22T02:03:26.619Z,99265.87
2022-09-22T02:08:36.089Z,99262.30
2022-09-22T02:13:38.077Z,99261.12
2022-09-22T02:18:46.226Z,99260.35
2022-09-22T02:23:49.297Z,99259.60
2022-09-22T02:28:56.316Z,99259.32
2022-09-22T02:33:59.382Z,99255.45
2022-09-22T02:39:20.661Z,99254.20
2022-09-22T02:44:29.762Z,99252.94
2022-09-22T02:49:31.994Z,99249.11
2022-09-22T02:54:33.796Z,99249.57
2022-09-22T02:59:35.560Z,99256.90
2022-09-22T03:04:37.347Z,99258.16
2022-09-22T03:09:39.316Z,99261.33
2022-09-22T03:15:00.850Z,99272.06
2022-09-22T03:20:11.924Z,99274.98
2022-09-22T03:25:15.730Z,99278.08
2022-09-22T03:30:23.788Z,99270.58
2022-09-22T03:35:25.557Z,99271.73
2022-09-22T03:40:44.887Z,99276.40
2022-09-22T03:45:59.620Z,99278.39
2022-09-22T03:51:01.452Z,99275.71
2022-09-22T03:56:12.417Z,99273.27
2022-09-22T04:01:14.645Z,99271.02
2022-09-22T04:06:16.693Z,99277.30
2022-09-22T04:11:18.914Z,99274.41
2022-09-22T04:16:22.053Z,99269.57
2022-09-22T04:21:23.779Z,99276.57
2022-09-22T04:26:25.589Z,99276.64
2022-09-22T04:31:34.138Z,99279.34
2022-09-22T04:36:37.127Z,99276.06
2022-09-22T04:41:39.019Z,99273.67
2022-09-22T04:46:41.717Z,99274.39
2022-09-22T04:51:43.770Z,99281.36
2022-09-22T04:56:45.643Z,99279.80
2022-09-22T05:01:47.568Z,99279.61
2022-09-22T05:06:49.343Z,99276.63
2022-09-22T05:11:51.187Z,99278.13
2022-09-22T05:16:53.179Z,99279.16
2022-09-22T05:21:55.112Z,99279.80
2022-09-22T05:26:56.885Z,99280.36
2022-09-22T05:31:58.878Z,99285.41
2022-09-22T05:37:00.886Z,99291.97
2022-09-22T05:42:05.338Z,99295.48
2022-09-22T05:47:09.449Z,99297.45
2022-09-22T05:52:11.420Z,99299.42
2022-09-22T05:57:13.326Z,99301.09
2022-09-22T06:02:25.507Z,99300.92
2022-09-22T06:07:27.896Z,99306.94
2022-09-22T06:12:29.657Z,99314.27
2022-09-22T06:17:32.065Z,99312.33
2022-09-22T06:22:36.516Z,99315.48
2022-09-22T06:27:40.164Z,99316.57
2022-09-22T06:32:43.889Z,99318.73
2022-09-22T06:37:48.695Z,99324.45
2022-09-22T06:42:55.997Z,99327.52
2022-09-22T06:47:58.999Z,99325.38
2022-09-22T06:53:02.554Z,99331.25
2022-09-22T06:58:04.351Z,99331.39
2022-09-22T07:03:25.517Z,99334.70
2022-09-22T07:08:36.527Z,99332.08
2022-09-22T07:13:40.709Z,99333.33
2022-09-22T07:18:45.381Z,99334.89
2022-09-22T07:23:50.054Z,99337.91
2022-09-22T07:29:00.769Z,99343.50
2022-09-22T07:34:03.415Z,99341.46
2022-09-22T07:39:08.138Z,99347.84
2022-09-22T07:44:30.880Z,99346.98
2022-09-22T07:49:33.439Z,99345.75
2022-09-22T07:54:36.984Z,99348.29
2022-09-22T07:59:41.577Z,99343.27
2022-09-22T08:04:43.864Z,99343.58
2022-09-22T08:09:45.620Z,99348.02
2022-09-22T08:14:47.337Z,99350.30
2022-09-22T08:19:50.098Z,99354.70
2022-09-22T08:24:52.001Z,99353.31
2022-09-22T08:29:53.779Z,99353.26
2022-09-22T08:34:58.041Z,99352.56
2022-09-22T08:39:59.889Z,99358.38
2022-09-22T08:45:27.146Z,99359.52
2022-09-22T08:51:09.073Z,99362.04
2022-09-22T08:56:35.230Z,99357.86
2022-09-22T09:01:55.081Z,99355.09
2022-09-22T09:07:19.842Z,99358.68
2022-09-22T09:12:39.328Z,99356.67
2022-09-22T09:17:46.203Z,99350.09
2022-09-22T09:22:58.236Z,99347.93
2022-09-22T09:28:06.072Z,99348.80
2022-09-22T09:33:25.764Z,99342.64
2022-09-22T09:38:42.949Z,99343.23
2022-09-22T09:44:05.784Z,99334.46
2022-09-22T09:49:23.393Z,99335.41
2022-09-22T09:54:25.586Z,99337.85
2022-09-22T09:59:46.907Z,99339.55
2022-09-22T10:04:53.404Z,99338.79
2022-09-22T10:09:56.404Z,99335.05
2022-09-22T10:15:00.358Z,99334.73
2022-09-22T10:20:31.697Z,99335.79
2022-09-22T10:25:34.056Z,99331.84
2022-09-22T10:30:39.713Z,99330.55
2022-09-22T10:35:45.167Z,99327.25
2022-09-22T10:40:53.359Z,99325.20
2022-09-22T10:46:05.409Z,99329.88
2022-09-22T10:51:40.085Z,99326.20
2022-09-22T10:56:55.072Z,99319.61
2022-09-22T11:02:48.468Z,99311.49
2022-09-22T11:08:26.910Z,99310.92
2022-09-22T11:13:56.435Z,99305.33
2022-09-22T11:19:13.607Z,99303.08
2022-09-22T11:24:37.900Z,99300.95
2022-09-22T11:30:18.373Z,99298.65
2022-09-22T11:35:48.629Z,99297.23
2022-09-22T11:41:10.375Z,99298.04
2022-09-22T11:46:21.151Z,99292.97
2022-09-22T11:51:47.889Z,99288.77
2022-09-22T11:56:53.087Z,99288.13
2022-09-22T12:01:58.989Z,99286.33
2022-09-22T12:07:03.971Z,99281.75
2022-09-22T12:12:07.568Z,99276.59
2022-09-22T12:17:18.810Z,99275.18
2022-09-22T12:22:37.454Z,99273.48
2022-09-22T12:27:40.283Z,99266.55
2022-09-22T12:32:43.360Z,99272.00
2022-09-22T12:37:45.367Z,99269.14
2022-09-22T12:42:51.921Z,99270.44
2022-09-22T12:47:56.895Z,99267.73
2022-09-22T12:53:03.419Z,99263.17
2022-09-22T12:58:28.381Z,99262.86
2022-09-22T13:03:30.644Z,99258.80
2022-09-22T13:08:36.838Z,99259.05
2022-09-22T13:13:42.562Z,99254.77
2022-09-22T13:18:52.012Z,99255.75
2022-09-22T13:23:53.945Z,99247.87
2022-09-22T13:29:06.025Z,99244.21
2022-09-22T13:34:31.487Z,99239.42
2022-09-22T13:39:46.881Z,99237.85
2022-09-22T13:44:58.249Z,99238.70
2022-09-22T13:50:07.002Z,99241.59
2022-09-22T13:55:08.827Z,99243.55
2022-09-22T14:01:11.371Z,99243.33
2022-09-22T14:06:20.914Z,99237.84
2022-09-22T14:11:28.348Z,99235.77
2022-09-22T14:16:49.643Z,99226.88
2022-09-22T14:22:16.944Z,99227.08
2022-09-22T14:27:47.819Z,99230.44
2022-09-22T14:33:03.832Z,99229.89
2022-09-22T14:38:32.764Z,99226.48
2022-09-22T14:43:50.912Z,99228.12
2022-09-22T14:48:52.672Z,99230.13
2022-09-22T14:54:01.595Z,99228.04
2022-09-22T14:59:37.453Z,99229.88
2022-09-22T15:04:48.587Z,99228.05
2022-09-22T15:09:55.449Z,99223.85
2022-09-22T15:15:00.978Z,99219.86
2022-09-22T15:20:03.229Z,99216.19
2022-09-22T15:25:05.489Z,99211.49
2022-09-22T15:30:30.540Z,99214.73
2022-09-22T15:35:48.757Z,99213.94
2022-09-22T15:40:51.610Z,99211.76
2022-09-22T15:45:58.563Z,99217.65
2022-09-22T15:51:07.396Z,99216.13
2022-09-22T15:56:19.542Z,99219.00
2022-09-22T16:01:21.404Z,99232.05
2022-09-22T16:06:23.425Z,99229.77
2022-09-22T16:11:30.284Z,99225.64
2022-09-22T16:16:35.079Z,99227.65
2022-09-22T16:21:40.451Z,99227.64
2022-09-22T16:26:42.509Z,99223.39
2022-09-22T16:31:47.053Z,99225.92
2022-09-22T16:36:49.855Z,99227.62
2022-09-22T16:41:52.097Z,99227.06
2022-09-22T16:46:54.360Z,99222.12
2022-09-22T16:51:56.297Z,99218.88
2022-09-22T16:56:58.481Z,99223.61
2022-09-22T17:02:00.440Z,99229.23
2022-09-22T17:07:02.440Z,99229.21
2022-09-22T17:12:09.128Z,99225.80
2022-09-22T17:17:11.432Z,99233.73
2022-09-22T17:22:13.869Z,99237.88
2022-09-22T17:27:17.114Z,99231.84
2022-09-22T17:32:19.608Z,99234.57
2022-09-22T17:37:21.890Z,99232.25
2022-09-22T17:42:24.389Z,99242.44
2022-09-22T17:48:16.232Z,99242.23
2022-09-22T17:53:36.948Z,99244.64
2022-09-22T17:58:45.766Z,99250.76
2022-09-22T18:04:01.792Z,99250.81
2022-09-22T18:09:03.777Z,99260.20
2022-09-22T18:14:06.292Z,99263.02
2022-09-22T18:19:28.763Z,99258.21
2022-09-22T18:24:41.245Z,99260.69
2022-09-22T18:29:43.427Z,99264.12
2022-09-22T18:34:45.396Z,99265.83
2022-09-22T18:39:50.369Z,99270.88
2022-09-22T18:44:52.507Z,99273.01
2022-09-22T18:49:54.273Z,99273.73
2022-09-22T18:54:57.316Z,99269.29
2022-09-22T19:00:00.524Z,99273.61
2022-09-22T19:05:02.307Z,99272.70
2022-09-22T19:10:04.674Z,99263.41
2022-09-22T19:15:15.325Z,99261.68
2022-09-22T19:20:31.321Z,99268.66
2022-09-22T19:25:34.594Z,99272.80
2022-09-22T19:30:36.470Z,99279.28
2022-09-22T19:35:39.469Z,99275.42
2022-09-22T19:40:41.685Z,99273.04
2022-09-22T19:45:43.534Z,99269.90
2022-09-22T19:50:47.035Z,99273.23
2022-09-22T19:55:48.825Z,99277.27
2022-09-22T20:00:51.318Z,99277.90
2022-09-22T20:05:53.599Z,99276.77
2022-09-22T20:11:25.117Z,99275.85
2022-09-22T20:16:25.811Z,99277.28
2022-09-22T20:21:28.011Z,99275.08
2022-09-22T20:26:31.014Z,99272.05
2022-09-22T20:31:32.881Z,99268.34
2022-09-22T20:36:37.127Z,99271.85
2022-09-22T20:41:42.281Z,99268.06
2022-09-22T20:46:47.450Z,99269.63
2022-09-22T20:51:49.527Z,99268.55
2022-09-22T20:56:51.539Z,99266.34
2022-09-22T21:01:53.679Z,99265.17
2022-09-22T21:06:56.747Z,99264.44
2022-09-22T21:11:58.637Z,99268.62
2022-09-22T21:17:04.834Z,99263.84
2022-09-22T21:22:06.691Z,99260.75
2022-09-22T21:27:09.275Z,99261.86
2022-09-22T21:32:11.254Z,99261.22
2022-09-22T21:37:14.584Z,99258.95
2022-09-22T21:42:16.368Z,99255.77
2022-09-22T21:47:20.405Z,99250.96
2022-09-22T21:52:22.761Z,99251.45
2022-09-22T21:57:24.574Z,99254.58
2022-09-22T22:02:26.266Z,99253.02
2022-09-22T22:07:28.089Z,99252.64
2022-09-22T22:12:38.691Z,99254.95
2022-09-22T22:17:47.230Z,99258.61
2022-09-22T22:22:49.106Z,99257.09
2022-09-22T22:27:54.847Z,99253.12
2022-09-22T22:32:56.590Z,99249.06
2022-09-22T22:37:58.527Z,99245.14
2022-09-22T22:43:00.313Z,99237.80
2022-09-22T22:48:02.358Z,99237.50
2022-09-22T22:53:05.290Z,99232.86
2022-09-22T22:58:07.539Z,99236.30
2022-09-22T23:03:11.176Z,99230.51
2022-09-22T23:08:13.331Z,99228.82
2022-09-22T23:13:15.321Z,99223.02
2022-09-22T23:18:20.749Z,99220.31
2022-09-22T23:23:23.417Z,99221.13
2022-09-22T23:28:26.381Z,99222.46
2022-09-22T23:33:39.937Z,99215.04
2022-09-22T23:38:41.905Z,99214.98
2022-09-22T23:43:43.925Z,99215.44
2022-09-22T23:48:47.575Z,99213.34
2022-09-22T23:53:50.041Z,99208.21
2022-09-22T23:58:52.373Z,99203.45
